sensor_id;sensor_type;location;lat;lon;timestamp;P1;durP1;ratioP1;P2;durP2;ratioP2
56736;SDS011;42618;51.226;4.910;2022-12-18T00:03:48;64.32;;;22.00;;
56736;SDS011;42618;51.226;4.910;2022-12-18T00:06:16;63.10;;;21.45;;
56736;SDS011;42618;51.226;4.910;2022-12-18T00:08:43;58.63;;;21.55;;
56736;SDS011;42618;51.226;4.910;2022-12-18T00:11:12;65.47;;;22.98;;
56736;SDS011;42618;51.226;4.910;2022-12-18T00:13:45;60.13;;;22.10;;
56736;SDS011;42618;51.226;4.910;2022-12-18T00:16:12;59.92;;;20.67;;
56736;SDS011;42618;51.226;4.910;2022-12-18T00:18:42;60.15;;;21.58;;
56736;SDS011;42618;51.226;4.910;2022-12-18T00:21:09;62.28;;;22.02;;
56736;SDS011;42618;51.226;4.910;2022-12-18T00:23:38;59.93;;;21.97;;
56736;SDS011;42618;51.226;4.910;2022-12-18T00:26:09;60.38;;;22.60;;
56736;SDS011;42618;51.226;4.910;2022-12-18T00:28:38;60.53;;;21.08;;
56736;SDS011;42618;51.226;4.910;2022-12-18T00:33:37;55.28;;;19.95;;
56736;SDS011;42618;51.226;4.910;2022-12-18T00:36:12;59.58;;;21.25;;
56736;SDS011;42618;51.226;4.910;2022-12-18T00:38:41;61.97;;;21.10;;
56736;SDS011;42618;51.226;4.910;2022-12-18T00:41:08;55.35;;;19.85;;
56736;SDS011;42618;51.226;4.910;2022-12-18T00:43:36;54.40;;;21.15;;
56736;SDS011;42618;51.226;4.910;2022-12-18T00:46:04;61.55;;;20.85;;
56736;SDS011;42618;51.226;4.910;2022-12-18T00:48:32;55.50;;;20.50;;
56736;SDS011;42618;51.226;4.910;2022-12-18T00:50:58;59.17;;;21.73;;
56736;SDS011;42618;51.226;4.910;2022-12-18T00:53:25;57.17;;;21.10;;
56736;SDS011;42618;51.226;4.910;2022-12-18T00:55:52;55.70;;;20.80;;
56736;SDS011;42618;51.226;4.910;2022-12-18T00:58:18;55.72;;;20.83;;
56736;SDS011;42618;51.226;4.910;2022-12-18T01:00:45;50.40;;;19.23;;
56736;SDS011;42618;51.226;4.910;2022-12-18T01:03:12;59.13;;;20.57;;
56736;SDS011;42618;51.226;4.910;2022-12-18T01:05:42;54.00;;;20.13;;
56736;SDS011;42618;51.226;4.910;2022-12-18T01:10:39;56.80;;;18.73;;
56736;SDS011;42618;51.226;4.910;2022-12-18T01:13:06;56.60;;;20.10;;
56736;SDS011;42618;51.226;4.910;2022-12-18T01:15:33;57.33;;;20.77;;
56736;SDS011;42618;51.226;4.910;2022-12-18T01:18:00;57.47;;;20.57;;
56736;SDS011;42618;51.226;4.910;2022-12-18T01:20:26;58.87;;;19.80;;
56736;SDS011;42618;51.226;4.910;2022-12-18T01:22:53;51.53;;;19.83;;
56736;SDS011;42618;51.226;4.910;2022-12-18T01:25:20;52.50;;;19.50;;
56736;SDS011;42618;51.226;4.910;2022-12-18T01:27:49;50.37;;;18.80;;
56736;SDS011;42618;51.226;4.910;2022-12-18T01:30:15;48.50;;;18.93;;
56736;SDS011;42618;51.226;4.910;2022-12-18T01:32:44;54.07;;;19.60;;
56736;SDS011;42618;51.226;4.910;2022-12-18T01:35:10;48.43;;;18.20;;
56736;SDS011;42618;51.226;4.910;2022-12-18T01:37:37;53.03;;;18.50;;
56736;SDS011;42618;51.226;4.910;2022-12-18T01:40:04;52.17;;;18.97;;
56736;SDS011;42618;51.226;4.910;2022-12-18T01:42:31;53.00;;;19.55;;
56736;SDS011;42618;51.226;4.910;2022-12-18T01:47:43;52.40;;;17.83;;
56736;SDS011;42618;51.226;4.910;2022-12-18T01:52:42;50.07;;;18.83;;
56736;SDS011;42618;51.226;4.910;2022-12-18T01:55:11;47.53;;;17.40;;
56736;SDS011;42618;51.226;4.910;2022-12-18T01:57:39;54.87;;;19.17;;
56736;SDS011;42618;51.226;4.910;2022-12-18T02:00:12;49.77;;;17.70;;
56736;SDS011;42618;51.226;4.910;2022-12-18T02:02:41;49.43;;;17.73;;
56736;SDS011;42618;51.226;4.910;2022-12-18T02:05:12;45.27;;;16.73;;
56736;SDS011;42618;51.226;4.910;2022-12-18T02:07:51;49.87;;;17.60;;
56736;SDS011;42618;51.226;4.910;2022-12-18T02:16:14;49.90;;;17.13;;
56736;SDS011;42618;51.226;4.910;2022-12-18T02:18:46;46.33;;;17.00;;
56736;SDS011;42618;51.226;4.910;2022-12-18T02:27:09;45.20;;;16.53;;
56736;SDS011;42618;51.226;4.910;2022-12-18T02:29:38;47.47;;;16.57;;
56736;SDS011;42618;51.226;4.910;2022-12-18T02:32:12;49.00;;;17.50;;
56736;SDS011;42618;51.226;4.910;2022-12-18T02:34:44;41.83;;;16.13;;
56736;SDS011;42618;51.226;4.910;2022-12-18T02:37:15;42.33;;;15.83;;
56736;SDS011;42618;51.226;4.910;2022-12-18T02:39:47;48.70;;;15.67;;
56736;SDS011;42618;51.226;4.910;2022-12-18T02:42:16;41.37;;;16.23;;
56736;SDS011;42618;51.226;4.910;2022-12-18T02:44:44;44.43;;;16.23;;
56736;SDS011;42618;51.226;4.910;2022-12-18T02:47:17;43.40;;;16.73;;
56736;SDS011;42618;51.226;4.910;2022-12-18T02:52:28;40.50;;;14.87;;
56736;SDS011;42618;51.226;4.910;2022-12-18T02:57:34;40.70;;;14.70;;
56736;SDS011;42618;51.226;4.910;2022-12-18T03:00:42;40.10;;;15.33;;
56736;SDS011;42618;51.226;4.910;2022-12-18T03:03:29;40.03;;;14.40;;
56736;SDS011;42618;51.226;4.910;2022-12-18T03:06:18;39.43;;;15.33;;
56736;SDS011;42618;51.226;4.910;2022-12-18T03:08:51;35.07;;;14.53;;
56736;SDS011;42618;51.226;4.910;2022-12-18T03:11:23;39.07;;;14.67;;
56736;SDS011;42618;51.226;4.910;2022-12-18T03:14:13;43.27;;;14.93;;
56736;SDS011;42618;51.226;4.910;2022-12-18T03:16:45;38.43;;;14.50;;
56736;SDS011;42618;51.226;4.910;2022-12-18T03:19:16;41.00;;;14.93;;
56736;SDS011;42618;51.226;4.910;2022-12-18T03:21:51;40.20;;;14.90;;
56736;SDS011;42618;51.226;4.910;2022-12-18T03:24:24;36.70;;;14.43;;
56736;SDS011;42618;51.226;4.910;2022-12-18T03:26:57;38.10;;;13.30;;
56736;SDS011;42618;51.226;4.910;2022-12-18T03:29:28;41.17;;;14.93;;
56736;SDS011;42618;51.226;4.910;2022-12-18T03:34:59;37.47;;;15.13;;
56736;SDS011;42618;51.226;4.910;2022-12-18T03:37:34;44.67;;;15.63;;
56736;SDS011;42618;51.226;4.910;2022-12-18T03:40:02;39.38;;;14.68;;
56736;SDS011;42618;51.226;4.910;2022-12-18T03:45:33;39.50;;;14.63;;
56736;SDS011;42618;51.226;4.910;2022-12-18T03:56:31;44.43;;;15.30;;
56736;SDS011;42618;51.226;4.910;2022-12-18T03:59:04;43.13;;;15.93;;
56736;SDS011;42618;51.226;4.910;2022-12-18T04:01:33;44.43;;;17.40;;
56736;SDS011;42618;51.226;4.910;2022-12-18T04:04:03;43.17;;;15.40;;
56736;SDS011;42618;51.226;4.910;2022-12-18T04:06:34;38.10;;;14.93;;
56736;SDS011;42618;51.226;4.910;2022-12-18T04:09:03;44.17;;;16.07;;
56736;SDS011;42618;51.226;4.910;2022-12-18T04:11:35;45.50;;;15.37;;
56736;SDS011;42618;51.226;4.910;2022-12-18T04:14:03;43.13;;;15.50;;
56736;SDS011;42618;51.226;4.910;2022-12-18T04:16:33;39.33;;;15.53;;
56736;SDS011;42618;51.226;4.910;2022-12-18T04:19:02;40.50;;;14.70;;
56736;SDS011;42618;51.226;4.910;2022-12-18T04:21:36;40.27;;;15.87;;
56736;SDS011;42618;51.226;4.910;2022-12-18T04:24:03;41.22;;;15.55;;
56736;SDS011;42618;51.226;4.910;2022-12-18T04:26:32;41.40;;;15.47;;
56736;SDS011;42618;51.226;4.910;2022-12-18T04:29:09;39.05;;;14.57;;
56736;SDS011;42618;51.226;4.910;2022-12-18T04:31:36;37.87;;;14.33;;
56736;SDS011;42618;51.226;4.910;2022-12-18T04:34:04;38.72;;;14.88;;
56736;SDS011;42618;51.226;4.910;2022-12-18T04:36:36;43.07;;;16.40;;
56736;SDS011;42618;51.226;4.910;2022-12-18T04:39:03;39.80;;;15.15;;
56736;SDS011;42618;51.226;4.910;2022-12-18T04:41:30;38.67;;;15.25;;
56736;SDS011;42618;51.226;4.910;2022-12-18T04:43:59;39.17;;;15.50;;
56736;SDS011;42618;51.226;4.910;2022-12-18T04:46:26;46.03;;;15.87;;
56736;SDS011;42618;51.226;4.910;2022-12-18T04:48:53;36.75;;;13.68;;
56736;SDS011;42618;51.226;4.910;2022-12-18T04:51:20;43.17;;;15.80;;
56736;SDS011;42618;51.226;4.910;2022-12-18T04:53:51;43.30;;;15.63;;
56736;SDS011;42618;51.226;4.910;2022-12-18T04:56:18;35.87;;;15.83;;
56736;SDS011;42618;51.226;4.910;2022-12-18T04:58:45;36.53;;;15.10;;
56736;SDS011;42618;51.226;4.910;2022-12-18T05:01:12;43.37;;;16.57;;
56736;SDS011;42618;51.226;4.910;2022-12-18T05:03:41;39.97;;;14.87;;
56736;SDS011;42618;51.226;4.910;2022-12-18T05:06:09;35.80;;;14.80;;
56736;SDS011;42618;51.226;4.910;2022-12-18T05:08:36;39.78;;;15.60;;
56736;SDS011;42618;51.226;4.910;2022-12-18T05:11:04;37.20;;;13.93;;
56736;SDS011;42618;51.226;4.910;2022-12-18T05:13:33;42.83;;;15.27;;
56736;SDS011;42618;51.226;4.910;2022-12-18T05:16:01;39.00;;;15.07;;
56736;SDS011;42618;51.226;4.910;2022-12-18T05:18:28;39.83;;;13.90;;
56736;SDS011;42618;51.226;4.910;2022-12-18T05:20:55;48.17;;;16.90;;
56736;SDS011;42618;51.226;4.910;2022-12-18T05:23:22;42.50;;;15.32;;
56736;SDS011;42618;51.226;4.910;2022-12-18T05:25:54;42.63;;;15.03;;
56736;SDS011;42618;51.226;4.910;2022-12-18T05:28:25;35.30;;;14.83;;
56736;SDS011;42618;51.226;4.910;2022-12-18T05:30:55;34.40;;;13.83;;
56736;SDS011;42618;51.226;4.910;2022-12-18T05:33:24;35.90;;;14.03;;
56736;SDS011;42618;51.226;4.910;2022-12-18T05:35:53;38.27;;;14.13;;
56736;SDS011;42618;51.226;4.910;2022-12-18T05:38:21;33.47;;;13.70;;
56736;SDS011;42618;51.226;4.910;2022-12-18T05:40:50;34.87;;;13.50;;
56736;SDS011;42618;51.226;4.910;2022-12-18T05:43:18;35.63;;;13.30;;
56736;SDS011;42618;51.226;4.910;2022-12-18T05:45:47;31.13;;;13.13;;
56736;SDS011;42618;51.226;4.910;2022-12-18T05:48:14;32.10;;;12.48;;
56736;SDS011;42618;51.226;4.910;2022-12-18T05:50:43;31.10;;;13.00;;
56736;SDS011;42618;51.226;4.910;2022-12-18T05:53:13;34.63;;;13.30;;
56736;SDS011;42618;51.226;4.910;2022-12-18T05:55:42;31.40;;;13.83;;
56736;SDS011;42618;51.226;4.910;2022-12-18T05:58:10;30.53;;;13.33;;
56736;SDS011;42618;51.226;4.910;2022-12-18T06:00:40;29.77;;;12.30;;
56736;SDS011;42618;51.226;4.910;2022-12-18T06:03:09;32.90;;;12.57;;
56736;SDS011;42618;51.226;4.910;2022-12-18T06:05:38;30.43;;;12.53;;
56736;SDS011;42618;51.226;4.910;2022-12-18T06:08:06;29.97;;;13.13;;
56736;SDS011;42618;51.226;4.910;2022-12-18T06:10:33;28.70;;;12.48;;
56736;SDS011;42618;51.226;4.910;2022-12-18T06:13:00;28.90;;;11.63;;
56736;SDS011;42618;51.226;4.910;2022-12-18T06:15:27;36.03;;;12.85;;
56736;SDS011;42618;51.226;4.910;2022-12-18T06:17:54;30.77;;;12.50;;
56736;SDS011;42618;51.226;4.910;2022-12-18T06:20:21;27.50;;;11.93;;
56736;SDS011;42618;51.226;4.910;2022-12-18T06:22:47;27.10;;;11.07;;
56736;SDS011;42618;51.226;4.910;2022-12-18T06:25:14;29.17;;;12.48;;
56736;SDS011;42618;51.226;4.910;2022-12-18T06:27:42;29.63;;;12.52;;
56736;SDS011;42618;51.226;4.910;2022-12-18T06:30:09;24.92;;;10.85;;
56736;SDS011;42618;51.226;4.910;2022-12-18T06:32:36;25.27;;;11.30;;
56736;SDS011;42618;51.226;4.910;2022-12-18T06:35:03;27.93;;;11.30;;
56736;SDS011;42618;51.226;4.910;2022-12-18T06:37:30;27.05;;;11.45;;
56736;SDS011;42618;51.226;4.910;2022-12-18T06:39:58;28.77;;;11.43;;
56736;SDS011;42618;51.226;4.910;2022-12-18T06:42:24;27.60;;;10.50;;
56736;SDS011;42618;51.226;4.910;2022-12-18T06:44:51;28.35;;;10.60;;
56736;SDS011;42618;51.226;4.910;2022-12-18T06:47:18;25.42;;;11.02;;
56736;SDS011;42618;51.226;4.910;2022-12-18T06:49:45;21.77;;;11.40;;
56736;SDS011;42618;51.226;4.910;2022-12-18T06:52:11;25.43;;;10.57;;
56736;SDS011;42618;51.226;4.910;2022-12-18T06:54:38;24.57;;;10.40;;
56736;SDS011;42618;51.226;4.910;2022-12-18T06:57:05;26.93;;;10.37;;
56736;SDS011;42618;51.226;4.910;2022-12-18T06:59:31;26.80;;;11.88;;
56736;SDS011;42618;51.226;4.910;2022-12-18T07:01:58;24.77;;;11.40;;
56736;SDS011;42618;51.226;4.910;2022-12-18T07:06:56;23.57;;;10.23;;
56736;SDS011;42618;51.226;4.910;2022-12-18T07:09:23;31.70;;;10.75;;
56736;SDS011;42618;51.226;4.910;2022-12-18T07:11:52;22.20;;;10.03;;
56736;SDS011;42618;51.226;4.910;2022-12-18T07:14:18;31.63;;;11.63;;
56736;SDS011;42618;51.226;4.910;2022-12-18T07:16:46;28.25;;;11.60;;
56736;SDS011;42618;51.226;4.910;2022-12-18T07:19:13;30.17;;;12.63;;
56736;SDS011;42618;51.226;4.910;2022-12-18T07:21:39;25.83;;;12.57;;
56736;SDS011;42618;51.226;4.910;2022-12-18T07:24:06;27.33;;;12.57;;
56736;SDS011;42618;51.226;4.910;2022-12-18T07:26:33;29.20;;;11.80;;
56736;SDS011;42618;51.226;4.910;2022-12-18T07:29:00;28.10;;;13.13;;
56736;SDS011;42618;51.226;4.910;2022-12-18T07:31:26;27.43;;;11.37;;
56736;SDS011;42618;51.226;4.910;2022-12-18T07:33:54;28.05;;;12.73;;
56736;SDS011;42618;51.226;4.910;2022-12-18T07:36:21;26.45;;;11.43;;
56736;SDS011;42618;51.226;4.910;2022-12-18T07:38:48;29.13;;;12.80;;
56736;SDS011;42618;51.226;4.910;2022-12-18T07:41:15;25.83;;;11.27;;
56736;SDS011;42618;51.226;4.910;2022-12-18T07:43:42;26.48;;;12.07;;
56736;SDS011;42618;51.226;4.910;2022-12-18T07:46:10;28.73;;;11.75;;
56736;SDS011;42618;51.226;4.910;2022-12-18T07:48:40;24.70;;;10.93;;
56736;SDS011;42618;51.226;4.910;2022-12-18T07:51:09;26.47;;;11.20;;
56736;SDS011;42618;51.226;4.910;2022-12-18T07:53:36;27.53;;;10.90;;
56736;SDS011;42618;51.226;4.910;2022-12-18T07:56:04;24.05;;;11.07;;
56736;SDS011;42618;51.226;4.910;2022-12-18T07:58:53;26.40;;;12.00;;
56736;SDS011;42618;51.226;4.910;2022-12-18T08:01:20;25.77;;;11.75;;
56736;SDS011;42618;51.226;4.910;2022-12-18T08:03:47;25.23;;;12.48;;
56736;SDS011;42618;51.226;4.910;2022-12-18T08:06:15;28.60;;;11.83;;
56736;SDS011;42618;51.226;4.910;2022-12-18T08:08:42;29.87;;;11.33;;
56736;SDS011;42618;51.226;4.910;2022-12-18T08:11:08;28.37;;;13.97;;
56736;SDS011;42618;51.226;4.910;2022-12-18T08:13:35;30.47;;;14.27;;
56736;SDS011;42618;51.226;4.910;2022-12-18T08:16:04;32.55;;;15.48;;
56736;SDS011;42618;51.226;4.910;2022-12-18T08:18:32;29.80;;;15.23;;
56736;SDS011;42618;51.226;4.910;2022-12-18T08:21:10;34.07;;;15.63;;
56736;SDS011;42618;51.226;4.910;2022-12-18T08:26:09;36.00;;;14.73;;
56736;SDS011;42618;51.226;4.910;2022-12-18T08:28:36;36.33;;;16.10;;
56736;SDS011;42618;51.226;4.910;2022-12-18T08:31:04;37.47;;;17.58;;
56736;SDS011;42618;51.226;4.910;2022-12-18T08:33:31;35.38;;;15.55;;
56736;SDS011;42618;51.226;4.910;2022-12-18T08:35:59;38.90;;;15.70;;
56736;SDS011;42618;51.226;4.910;2022-12-18T08:38:26;32.63;;;14.35;;
56736;SDS011;42618;51.226;4.910;2022-12-18T08:41:03;33.45;;;13.55;;
56736;SDS011;42618;51.226;4.910;2022-12-18T08:43:31;35.30;;;14.83;;
56736;SDS011;42618;51.226;4.910;2022-12-18T08:46:17;37.70;;;15.47;;
56736;SDS011;42618;51.226;4.910;2022-12-18T08:48:45;38.03;;;15.35;;
56736;SDS011;42618;51.226;4.910;2022-12-18T08:51:12;40.50;;;16.90;;
56736;SDS011;42618;51.226;4.910;2022-12-18T08:53:39;35.78;;;15.27;;
56736;SDS011;42618;51.226;4.910;2022-12-18T08:56:07;24.23;;;10.98;;
56736;SDS011;42618;51.226;4.910;2022-12-18T08:58:33;29.50;;;12.45;;
56736;SDS011;42618;51.226;4.910;2022-12-18T09:01:01;30.52;;;11.82;;
56736;SDS011;42618;51.226;4.910;2022-12-18T09:03:30;27.13;;;12.90;;
56736;SDS011;42618;51.226;4.910;2022-12-18T09:05:57;27.20;;;12.35;;
56736;SDS011;42618;51.226;4.910;2022-12-18T09:08:24;33.50;;;14.20;;
56736;SDS011;42618;51.226;4.910;2022-12-18T09:10:51;31.95;;;14.13;;
56736;SDS011;42618;51.226;4.910;2022-12-18T09:13:18;27.48;;;12.65;;
56736;SDS011;42618;51.226;4.910;2022-12-18T09:15:52;27.50;;;12.32;;
56736;SDS011;42618;51.226;4.910;2022-12-18T09:18:21;27.17;;;12.40;;
56736;SDS011;42618;51.226;4.910;2022-12-18T09:20:49;30.98;;;13.50;;
56736;SDS011;42618;51.226;4.910;2022-12-18T09:23:19;32.22;;;14.07;;
56736;SDS011;42618;51.226;4.910;2022-12-18T09:25:47;34.08;;;14.07;;
56736;SDS011;42618;51.226;4.910;2022-12-18T09:28:15;30.40;;;13.82;;
56736;SDS011;42618;51.226;4.910;2022-12-18T09:30:45;33.72;;;14.13;;
56736;SDS011;42618;51.226;4.910;2022-12-18T09:33:13;28.13;;;13.32;;
56736;SDS011;42618;51.226;4.910;2022-12-18T09:35:41;32.55;;;14.60;;
56736;SDS011;42618;51.226;4.910;2022-12-18T09:38:14;29.90;;;13.68;;
56736;SDS011;42618;51.226;4.910;2022-12-18T09:40:43;27.70;;;12.88;;
56736;SDS011;42618;51.226;4.910;2022-12-18T09:43:18;27.60;;;11.70;;
56736;SDS011;42618;51.226;4.910;2022-12-18T09:45:50;25.27;;;12.27;;
56736;SDS011;42618;51.226;4.910;2022-12-18T09:48:27;27.08;;;12.30;;
56736;SDS011;42618;51.226;4.910;2022-12-18T09:51:00;28.08;;;13.02;;
56736;SDS011;42618;51.226;4.910;2022-12-18T09:53:31;30.60;;;13.90;;
56736;SDS011;42618;51.226;4.910;2022-12-18T09:56:01;29.30;;;13.45;;
56736;SDS011;42618;51.226;4.910;2022-12-18T09:58:39;30.52;;;12.65;;
56736;SDS011;42618;51.226;4.910;2022-12-18T10:01:12;27.25;;;12.75;;
56736;SDS011;42618;51.226;4.910;2022-12-18T10:03:44;26.48;;;12.45;;
56736;SDS011;42618;51.226;4.910;2022-12-18T10:06:13;31.58;;;14.30;;
56736;SDS011;42618;51.226;4.910;2022-12-18T10:08:59;30.13;;;14.07;;
56736;SDS011;42618;51.226;4.910;2022-12-18T10:17:03;27.63;;;12.23;;
56736;SDS011;42618;51.226;4.910;2022-12-18T10:19:56;27.88;;;12.82;;
56736;SDS011;42618;51.226;4.910;2022-12-18T10:25:12;30.80;;;12.95;;
56736;SDS011;42618;51.226;4.910;2022-12-18T10:27:45;26.38;;;12.93;;
56736;SDS011;42618;51.226;4.910;2022-12-18T10:30:13;29.25;;;13.63;;
56736;SDS011;42618;51.226;4.910;2022-12-18T10:32:42;27.75;;;12.82;;
56736;SDS011;42618;51.226;4.910;2022-12-18T10:35:30;27.88;;;13.23;;
56736;SDS011;42618;51.226;4.910;2022-12-18T10:43:26;29.13;;;13.18;;
56736;SDS011;42618;51.226;4.910;2022-12-18T10:46:01;27.55;;;12.70;;
56736;SDS011;42618;51.226;4.910;2022-12-18T10:51:32;25.10;;;11.63;;
56736;SDS011;42618;51.226;4.910;2022-12-18T10:54:04;22.63;;;11.75;;
56736;SDS011;42618;51.226;4.910;2022-12-18T10:56:34;23.10;;;11.85;;
56736;SDS011;42618;51.226;4.910;2022-12-18T10:59:06;25.05;;;11.50;;
56736;SDS011;42618;51.226;4.910;2022-12-18T11:04:24;23.02;;;10.77;;
56736;SDS011;42618;51.226;4.910;2022-12-18T11:07:14;23.15;;;11.73;;
56736;SDS011;42618;51.226;4.910;2022-12-18T11:09:39;26.60;;;12.65;;
56736;SDS011;42618;51.226;4.910;2022-12-18T11:14:50;28.63;;;11.77;;
56736;SDS011;42618;51.226;4.910;2022-12-18T11:19:52;28.63;;;11.05;;
56736;SDS011;42618;51.226;4.910;2022-12-18T11:22:22;28.90;;;12.10;;
56736;SDS011;42618;51.226;4.910;2022-12-18T11:25:04;23.38;;;10.32;;
56736;SDS011;42618;51.226;4.910;2022-12-18T11:28:05;21.95;;;10.40;;
56736;SDS011;42618;51.226;4.910;2022-12-18T11:33:59;25.92;;;11.00;;
56736;SDS011;42618;51.226;4.910;2022-12-18T11:36:48;29.40;;;12.27;;
56736;SDS011;42618;51.226;4.910;2022-12-18T11:39:20;31.05;;;12.55;;
56736;SDS011;42618;51.226;4.910;2022-12-18T11:41:54;32.92;;;12.52;;
56736;SDS011;42618;51.226;4.910;2022-12-18T11:44:46;30.52;;;11.60;;
56736;SDS011;42618;51.226;4.910;2022-12-18T11:50:10;65.32;;;24.92;;
56736;SDS011;42618;51.226;4.910;2022-12-18T11:52:41;29.70;;;13.30;;
56736;SDS011;42618;51.226;4.910;2022-12-18T11:55:54;24.87;;;11.83;;
56736;SDS011;42618;51.226;4.910;2022-12-18T11:58:01;26.13;;;11.43;;
56736;SDS011;42618;51.226;4.910;2022-12-18T12:00:38;29.75;;;11.07;;
56736;SDS011;42618;51.226;4.910;2022-12-18T12:03:22;23.73;;;10.45;;
56736;SDS011;42618;51.226;4.910;2022-12-18T12:06:11;24.30;;;10.43;;
56736;SDS011;42618;51.226;4.910;2022-12-18T12:14:24;25.23;;;11.52;;
56736;SDS011;42618;51.226;4.910;2022-12-18T12:17:34;24.60;;;11.93;;
56736;SDS011;42618;51.226;4.910;2022-12-18T12:20:16;25.90;;;11.05;;
56736;SDS011;42618;51.226;4.910;2022-12-18T12:25:51;26.73;;;11.27;;
56736;SDS011;42618;51.226;4.910;2022-12-18T12:34:04;30.73;;;12.27;;
56736;SDS011;42618;51.226;4.910;2022-12-18T12:39:31;23.98;;;11.00;;
56736;SDS011;42618;51.226;4.910;2022-12-18T12:42:02;23.98;;;11.60;;
56736;SDS011;42618;51.226;4.910;2022-12-18T12:44:58;27.75;;;11.43;;
56736;SDS011;42618;51.226;4.910;2022-12-18T12:47:32;29.30;;;11.52;;
56736;SDS011;42618;51.226;4.910;2022-12-18T12:50:05;28.55;;;12.82;;
56736;SDS011;42618;51.226;4.910;2022-12-18T12:52:57;27.38;;;12.73;;
56736;SDS011;42618;51.226;4.910;2022-12-18T12:55:25;27.27;;;11.82;;
56736;SDS011;42618;51.226;4.910;2022-12-18T12:57:56;29.35;;;13.43;;
56736;SDS011;42618;51.226;4.910;2022-12-18T13:00:30;32.35;;;12.95;;
56736;SDS011;42618;51.226;4.910;2022-12-18T13:05:49;29.60;;;12.23;;
56736;SDS011;42618;51.226;4.910;2022-12-18T13:08:30;28.02;;;12.38;;
56736;SDS011;42618;51.226;4.910;2022-12-18T13:11:02;32.63;;;14.77;;
56736;SDS011;42618;51.226;4.910;2022-12-18T13:13:55;28.83;;;13.82;;
56736;SDS011;42618;51.226;4.910;2022-12-18T13:16:24;33.58;;;15.82;;
56736;SDS011;42618;51.226;4.910;2022-12-18T13:18:54;39.20;;;18.40;;
56736;SDS011;42618;51.226;4.910;2022-12-18T13:21:27;28.80;;;13.77;;
56736;SDS011;42618;51.226;4.910;2022-12-18T13:23:56;28.42;;;13.70;;
56736;SDS011;42618;51.226;4.910;2022-12-18T13:26:40;31.67;;;13.63;;
56736;SDS011;42618;51.226;4.910;2022-12-18T13:29:07;33.38;;;15.15;;
56736;SDS011;42618;51.226;4.910;2022-12-18T13:34:18;27.52;;;13.15;;
56736;SDS011;42618;51.226;4.910;2022-12-18T13:36:54;32.22;;;14.10;;
56736;SDS011;42618;51.226;4.910;2022-12-18T13:39:23;30.13;;;13.93;;
56736;SDS011;42618;51.226;4.910;2022-12-18T13:44:40;33.00;;;14.38;;
56736;SDS011;42618;51.226;4.910;2022-12-18T13:50:02;32.55;;;14.00;;
56736;SDS011;42618;51.226;4.910;2022-12-18T13:52:37;35.75;;;14.13;;
56736;SDS011;42618;51.226;4.910;2022-12-18T13:55:07;33.30;;;14.55;;
56736;SDS011;42618;51.226;4.910;2022-12-18T13:57:42;29.70;;;14.35;;
56736;SDS011;42618;51.226;4.910;2022-12-18T14:02:45;37.13;;;14.40;;
56736;SDS011;42618;51.226;4.910;2022-12-18T14:05:32;32.65;;;14.65;;
56736;SDS011;42618;51.226;4.910;2022-12-18T14:08:14;30.23;;;13.52;;
56736;SDS011;42618;51.226;4.910;2022-12-18T14:10:43;33.83;;;15.30;;
56736;SDS011;42618;51.226;4.910;2022-12-18T14:13:18;37.17;;;15.10;;
56736;SDS011;42618;51.226;4.910;2022-12-18T14:15:57;29.98;;;14.02;;
56736;SDS011;42618;51.226;4.910;2022-12-18T14:21:28;32.63;;;14.82;;
56736;SDS011;42618;51.226;4.910;2022-12-18T14:24:13;32.80;;;14.57;;
56736;SDS011;42618;51.226;4.910;2022-12-18T14:26:44;36.25;;;17.13;;
56736;SDS011;42618;51.226;4.910;2022-12-18T14:29:44;35.00;;;16.10;;
56736;SDS011;42618;51.226;4.910;2022-12-18T14:32:13;36.25;;;15.63;;
56736;SDS011;42618;51.226;4.910;2022-12-18T14:34:48;33.72;;;15.57;;
56736;SDS011;42618;51.226;4.910;2022-12-18T14:37:18;31.67;;;14.43;;
56736;SDS011;42618;51.226;4.910;2022-12-18T14:42:22;39.08;;;15.95;;
56736;SDS011;42618;51.226;4.910;2022-12-18T14:48:17;32.35;;;14.50;;
56736;SDS011;42618;51.226;4.910;2022-12-18T14:50:56;29.05;;;14.25;;
56736;SDS011;42618;51.226;4.910;2022-12-18T14:53:32;35.40;;;14.55;;
56736;SDS011;42618;51.226;4.910;2022-12-18T14:56:02;36.63;;;15.07;;
56736;SDS011;42618;51.226;4.910;2022-12-18T14:58:39;29.40;;;14.52;;
56736;SDS011;42618;51.226;4.910;2022-12-18T15:01:17;30.02;;;14.63;;
56736;SDS011;42618;51.226;4.910;2022-12-18T15:04:22;28.77;;;13.80;;
56736;SDS011;42618;51.226;4.910;2022-12-18T15:09:37;35.17;;;14.07;;
56736;SDS011;42618;51.226;4.910;2022-12-18T15:12:15;27.92;;;13.82;;
56736;SDS011;42618;51.226;4.910;2022-12-18T15:14:50;32.85;;;14.63;;
56736;SDS011;42618;51.226;4.910;2022-12-18T15:17:19;32.28;;;14.55;;
56736;SDS011;42618;51.226;4.910;2022-12-18T15:19:52;30.65;;;14.50;;
56736;SDS011;42618;51.226;4.910;2022-12-18T15:22:26;29.77;;;13.30;;
56736;SDS011;42618;51.226;4.910;2022-12-18T15:24:55;36.35;;;14.95;;
56736;SDS011;42618;51.226;4.910;2022-12-18T15:29:59;31.17;;;14.90;;
56736;SDS011;42618;51.226;4.910;2022-12-18T15:32:27;34.05;;;15.70;;
56736;SDS011;42618;51.226;4.910;2022-12-18T15:40:22;43.08;;;18.67;;
56736;SDS011;42618;51.226;4.910;2022-12-18T15:42:51;42.60;;;20.52;;
56736;SDS011;42618;51.226;4.910;2022-12-18T15:45:38;44.13;;;21.42;;
56736;SDS011;42618;51.226;4.910;2022-12-18T15:48:17;49.63;;;21.40;;
56736;SDS011;42618;51.226;4.910;2022-12-18T15:50:50;47.85;;;21.75;;
56736;SDS011;42618;51.226;4.910;2022-12-18T15:53:18;36.60;;;17.92;;
56736;SDS011;42618;51.226;4.910;2022-12-18T15:55:45;48.97;;;22.23;;
56736;SDS011;42618;51.226;4.910;2022-12-18T15:58:31;60.95;;;26.27;;
56736;SDS011;42618;51.226;4.910;2022-12-18T16:00:59;71.88;;;29.13;;
56736;SDS011;42618;51.226;4.910;2022-12-18T16:03:27;41.97;;;20.83;;
56736;SDS011;42618;51.226;4.910;2022-12-18T16:05:54;40.17;;;20.60;;
56736;SDS011;42618;51.226;4.910;2022-12-18T16:08:22;38.30;;;19.67;;
56736;SDS011;42618;51.226;4.910;2022-12-18T16:10:48;40.83;;;19.90;;
56736;SDS011;42618;51.226;4.910;2022-12-18T16:13:16;40.78;;;20.50;;
56736;SDS011;42618;51.226;4.910;2022-12-18T16:15:46;35.45;;;19.27;;
56736;SDS011;42618;51.226;4.910;2022-12-18T16:18:13;45.17;;;20.70;;
56736;SDS011;42618;51.226;4.910;2022-12-18T16:20:40;44.63;;;20.00;;
56736;SDS011;42618;51.226;4.910;2022-12-18T16:23:07;48.20;;;20.85;;
56736;SDS011;42618;51.226;4.910;2022-12-18T16:25:34;46.40;;;22.65;;
56736;SDS011;42618;51.226;4.910;2022-12-18T16:28:01;44.53;;;21.17;;
56736;SDS011;42618;51.226;4.910;2022-12-18T16:30:28;46.80;;;22.05;;
56736;SDS011;42618;51.226;4.910;2022-12-18T16:33:04;44.92;;;20.85;;
56736;SDS011;42618;51.226;4.910;2022-12-18T16:35:33;39.65;;;20.48;;
56736;SDS011;42618;51.226;4.910;2022-12-18T16:38:00;40.38;;;21.30;;
56736;SDS011;42618;51.226;4.910;2022-12-18T16:40:27;39.58;;;19.70;;
56736;SDS011;42618;51.226;4.910;2022-12-18T16:42:53;41.88;;;19.70;;
56736;SDS011;42618;51.226;4.910;2022-12-18T16:45:20;43.67;;;20.40;;
56736;SDS011;42618;51.226;4.910;2022-12-18T16:47:48;45.92;;;21.70;;
56736;SDS011;42618;51.226;4.910;2022-12-18T16:50:15;46.53;;;23.83;;
56736;SDS011;42618;51.226;4.910;2022-12-18T16:52:42;81.22;;;34.83;;
56736;SDS011;42618;51.226;4.910;2022-12-18T16:55:09;49.20;;;24.05;;